sensor_id;sensor_type;location;lat;lon;timestamp;P1;durP1;ratioP1;P2;durP2;ratioP2
14096;SDS011;7125;48.106;11.544;2023-12-29T00:00:07;0.60;;;0.60;;
14096;SDS011;7125;48.106;11.544;2023-12-29T00:05:17;0.70;;;0.60;;
14096;SDS011;7125;48.106;11.544;2023-12-29T00:07:44;1.33;;;0.80;;
14096;SDS011;7125;48.106;11.544;2023-12-29T00:10:13;0.77;;;0.40;;
14096;SDS011;7125;48.106;11.544;2023-12-29T00:12:40;1.93;;;1.00;;
14096;SDS011;7125;48.106;11.544;2023-12-29T00:15:07;1.23;;;0.57;;
14096;SDS011;7125;48.106;11.544;2023-12-29T00:17:35;0.60;;;0.60;;
14096;SDS011;7125;48.106;11.544;2023-12-29T00:20:05;1.03;;;0.93;;
14096;SDS011;7125;48.106;11.544;2023-12-29T00:22:33;1.10;;;0.90;;
14096;SDS011;7125;48.106;11.544;2023-12-29T00:25:00;1.10;;;0.87;;
14096;SDS011;7125;48.106;11.544;2023-12-29T00:27:29;2.30;;;1.10;;
14096;SDS011;7125;48.106;11.544;2023-12-29T00:29:56;1.00;;;0.93;;
14096;SDS011;7125;48.106;11.544;2023-12-29T00:32:23;2.37;;;1.20;;
14096;SDS011;7125;48.106;11.544;2023-12-29T00:34:50;1.53;;;1.23;;
14096;SDS011;7125;48.106;11.544;2023-12-29T00:37:17;1.30;;;1.13;;
14096;SDS011;7125;48.106;11.544;2023-12-29T00:39:44;2.23;;;1.43;;
14096;SDS011;7125;48.106;11.544;2023-12-29T00:42:11;2.73;;;1.40;;
14096;SDS011;7125;48.106;11.544;2023-12-29T00:44:40;2.10;;;1.20;;
14096;SDS011;7125;48.106;11.544;2023-12-29T00:47:07;2.97;;;1.20;;
14096;SDS011;7125;48.106;11.544;2023-12-29T00:49:37;1.57;;;1.47;;
14096;SDS011;7125;48.106;11.544;2023-12-29T00:52:05;1.50;;;1.37;;
14096;SDS011;7125;48.106;11.544;2023-12-29T00:54:33;2.47;;;1.77;;
14096;SDS011;7125;48.106;11.544;2023-12-29T00:57:00;2.93;;;1.60;;
14096;SDS011;7125;48.106;11.544;2023-12-29T00:59:27;1.77;;;1.20;;
14096;SDS011;7125;48.106;11.544;2023-12-29T01:01:56;2.83;;;2.13;;
14096;SDS011;7125;48.106;11.544;2023-12-29T01:04:23;2.47;;;1.57;;
14096;SDS011;7125;48.106;11.544;2023-12-29T01:06:50;1.83;;;1.20;;
14096;SDS011;7125;48.106;11.544;2023-12-29T01:09:19;2.03;;;1.33;;
14096;SDS011;7125;48.106;11.544;2023-12-29T01:11:46;2.97;;;1.60;;
14096;SDS011;7125;48.106;11.544;2023-12-29T01:14:13;2.30;;;1.70;;
14096;SDS011;7125;48.106;11.544;2023-12-29T01:16:40;4.50;;;2.37;;
14096;SDS011;7125;48.106;11.544;2023-12-29T01:21:59;2.67;;;1.80;;
14096;SDS011;7125;48.106;11.544;2023-12-29T01:24:26;2.17;;;1.43;;
14096;SDS011;7125;48.106;11.544;2023-12-29T01:26:53;1.70;;;1.43;;
14096;SDS011;7125;48.106;11.544;2023-12-29T01:29:20;2.10;;;1.87;;
14096;SDS011;7125;48.106;11.544;2023-12-29T01:34:37;2.60;;;1.60;;
14096;SDS011;7125;48.106;11.544;2023-12-29T01:37:06;1.40;;;1.30;;
14096;SDS011;7125;48.106;11.544;2023-12-29T01:39:33;1.60;;;1.30;;
14096;SDS011;7125;48.106;11.544;2023-12-29T01:42:00;1.63;;;1.53;;
14096;SDS011;7125;48.106;11.544;2023-12-29T01:44:28;1.93;;;1.40;;
14096;SDS011;7125;48.106;11.544;2023-12-29T01:46:55;1.70;;;1.60;;
14096;SDS011;7125;48.106;11.544;2023-12-29T01:49:28;1.80;;;1.50;;
14096;SDS011;7125;48.106;11.544;2023-12-29T01:51:57;2.03;;;1.40;;
14096;SDS011;7125;48.106;11.544;2023-12-29T01:54:27;3.87;;;1.70;;
14096;SDS011;7125;48.106;11.544;2023-12-29T01:56:57;1.63;;;1.50;;
14096;SDS011;7125;48.106;11.544;2023-12-29T01:59:25;2.70;;;1.63;;
14096;SDS011;7125;48.106;11.544;2023-12-29T02:01:54;1.60;;;1.37;;
14096;SDS011;7125;48.106;11.544;2023-12-29T02:04:22;1.73;;;1.50;;
14096;SDS011;7125;48.106;11.544;2023-12-29T02:06:50;1.83;;;1.53;;
14096;SDS011;7125;48.106;11.544;2023-12-29T02:09:18;1.77;;;1.57;;
14096;SDS011;7125;48.106;11.544;2023-12-29T02:11:46;5.17;;;2.00;;
14096;SDS011;7125;48.106;11.544;2023-12-29T02:14:14;3.03;;;1.97;;
14096;SDS011;7125;48.106;11.544;2023-12-29T02:16:45;1.53;;;1.43;;
14096;SDS011;7125;48.106;11.544;2023-12-29T02:19:23;2.40;;;1.67;;
14096;SDS011;7125;48.106;11.544;2023-12-29T02:22:01;2.37;;;1.73;;
14096;SDS011;7125;48.106;11.544;2023-12-29T02:24:28;2.33;;;1.97;;
14096;SDS011;7125;48.106;11.544;2023-12-29T02:26:57;2.40;;;1.60;;
14096;SDS011;7125;48.106;11.544;2023-12-29T02:29:32;1.90;;;1.70;;
14096;SDS011;7125;48.106;11.544;2023-12-29T02:32:00;3.50;;;1.27;;
14096;SDS011;7125;48.106;11.544;2023-12-29T02:34:33;2.00;;;1.40;;
14096;SDS011;7125;48.106;11.544;2023-12-29T02:37:00;3.40;;;1.60;;
14096;SDS011;7125;48.106;11.544;2023-12-29T02:39:28;3.13;;;1.77;;
14096;SDS011;7125;48.106;11.544;2023-12-29T02:41:56;2.10;;;1.73;;
14096;SDS011;7125;48.106;11.544;2023-12-29T02:44:24;4.40;;;1.70;;
14096;SDS011;7125;48.106;11.544;2023-12-29T02:46:51;2.07;;;1.23;;
14096;SDS011;7125;48.106;11.544;2023-12-29T02:49:18;1.70;;;1.53;;
14096;SDS011;7125;48.106;11.544;2023-12-29T02:51:46;4.20;;;1.53;;
14096;SDS011;7125;48.106;11.544;2023-12-29T02:54:15;2.53;;;1.73;;
14096;SDS011;7125;48.106;11.544;2023-12-29T02:56:42;2.17;;;1.70;;
14096;SDS011;7125;48.106;11.544;2023-12-29T02:59:10;2.70;;;2.07;;
14096;SDS011;7125;48.106;11.544;2023-12-29T03:01:39;1.63;;;1.20;;
14096;SDS011;7125;48.106;11.544;2023-12-29T03:04:06;3.83;;;1.77;;
14096;SDS011;7125;48.106;11.544;2023-12-29T03:06:34;1.77;;;1.50;;
14096;SDS011;7125;48.106;11.544;2023-12-29T03:11:42;3.13;;;1.70;;
14096;SDS011;7125;48.106;11.544;2023-12-29T03:14:11;3.57;;;1.87;;
14096;SDS011;7125;48.106;11.544;2023-12-29T03:16:39;2.43;;;2.23;;
14096;SDS011;7125;48.106;11.544;2023-12-29T03:19:06;1.57;;;1.47;;
14096;SDS011;7125;48.106;11.544;2023-12-29T03:21:33;1.80;;;1.33;;
14096;SDS011;7125;48.106;11.544;2023-12-29T03:24:00;1.67;;;1.30;;
14096;SDS011;7125;48.106;11.544;2023-12-29T03:26:27;2.23;;;1.60;;
14096;SDS011;7125;48.106;11.544;2023-12-29T03:28:55;4.63;;;1.43;;
14096;SDS011;7125;48.106;11.544;2023-12-29T03:31:23;1.23;;;1.10;;
14096;SDS011;7125;48.106;11.544;2023-12-29T03:33:50;2.57;;;1.40;;
14096;SDS011;7125;48.106;11.544;2023-12-29T03:36:18;1.70;;;1.50;;
14096;SDS011;7125;48.106;11.544;2023-12-29T03:38:45;1.87;;;1.20;;
14096;SDS011;7125;48.106;11.544;2023-12-29T03:41:12;1.90;;;1.77;;
14096;SDS011;7125;48.106;11.544;2023-12-29T03:43:40;1.83;;;1.63;;
14096;SDS011;7125;48.106;11.544;2023-12-29T03:46:14;1.90;;;1.57;;
14096;SDS011;7125;48.106;11.544;2023-12-29T03:48:44;2.10;;;1.67;;
14096;SDS011;7125;48.106;11.544;2023-12-29T03:51:11;1.87;;;1.57;;
14096;SDS011;7125;48.106;11.544;2023-12-29T03:59:02;2.70;;;1.37;;
14096;SDS011;7125;48.106;11.544;2023-12-29T04:01:32;1.50;;;1.17;;
14096;SDS011;7125;48.106;11.544;2023-12-29T04:04:01;3.33;;;1.40;;
14096;SDS011;7125;48.106;11.544;2023-12-29T04:06:28;2.07;;;1.80;;
14096;SDS011;7125;48.106;11.544;2023-12-29T04:08:55;1.60;;;1.47;;
14096;SDS011;7125;48.106;11.544;2023-12-29T04:11:22;2.27;;;1.57;;
14096;SDS011;7125;48.106;11.544;2023-12-29T04:13:49;2.20;;;1.87;;
14096;SDS011;7125;48.106;11.544;2023-12-29T04:16:16;3.33;;;2.30;;
14096;SDS011;7125;48.106;11.544;2023-12-29T04:18:43;1.20;;;1.10;;
14096;SDS011;7125;48.106;11.544;2023-12-29T04:21:14;2.07;;;1.20;;
14096;SDS011;7125;48.106;11.544;2023-12-29T04:23:41;1.93;;;1.43;;
14096;SDS011;7125;48.106;11.544;2023-12-29T04:26:08;1.07;;;0.90;;
14096;SDS011;7125;48.106;11.544;2023-12-29T04:28:36;1.73;;;1.00;;
14096;SDS011;7125;48.106;11.544;2023-12-29T04:31:03;1.97;;;1.00;;
14096;SDS011;7125;48.106;11.544;2023-12-29T04:33:30;1.80;;;1.13;;
14096;SDS011;7125;48.106;11.544;2023-12-29T04:35:57;3.27;;;1.30;;
14096;SDS011;7125;48.106;11.544;2023-12-29T04:38:26;1.20;;;1.00;;
14096;SDS011;7125;48.106;11.544;2023-12-29T04:40:54;1.37;;;1.07;;
14096;SDS011;7125;48.106;11.544;2023-12-29T04:43:21;1.20;;;1.07;;
14096;SDS011;7125;48.106;11.544;2023-12-29T04:45:48;1.97;;;1.30;;
14096;SDS011;7125;48.106;11.544;2023-12-29T04:48:15;2.53;;;1.13;;
14096;SDS011;7125;48.106;11.544;2023-12-29T04:50:42;2.90;;;1.87;;
14096;SDS011;7125;48.106;11.544;2023-12-29T04:53:09;2.47;;;1.43;;
14096;SDS011;7125;48.106;11.544;2023-12-29T04:55:37;1.40;;;1.30;;
14096;SDS011;7125;48.106;11.544;2023-12-29T04:58:04;1.57;;;1.23;;
14096;SDS011;7125;48.106;11.544;2023-12-29T05:00:32;1.47;;;1.07;;
14096;SDS011;7125;48.106;11.544;2023-12-29T05:02:59;1.70;;;1.13;;
14096;SDS011;7125;48.106;11.544;2023-12-29T05:05:26;0.87;;;0.80;;
14096;SDS011;7125;48.106;11.544;2023-12-29T05:07:53;1.57;;;1.20;;
14096;SDS011;7125;48.106;11.544;2023-12-29T05:10:20;1.20;;;1.10;;
14096;SDS011;7125;48.106;11.544;2023-12-29T05:12:48;1.33;;;1.23;;
14096;SDS011;7125;48.106;11.544;2023-12-29T05:15:16;1.50;;;1.20;;
14096;SDS011;7125;48.106;11.544;2023-12-29T05:17:43;1.50;;;1.07;;
14096;SDS011;7125;48.106;11.544;2023-12-29T05:20:10;2.23;;;1.40;;
14096;SDS011;7125;48.106;11.544;2023-12-29T05:22:38;1.43;;;1.33;;
14096;SDS011;7125;48.106;11.544;2023-12-29T05:25:05;1.40;;;1.13;;
14096;SDS011;7125;48.106;11.544;2023-12-29T05:27:33;1.83;;;1.47;;
14096;SDS011;7125;48.106;11.544;2023-12-29T05:30:01;1.43;;;1.10;;
14096;SDS011;7125;48.106;11.544;2023-12-29T05:32:29;2.33;;;1.07;;
14096;SDS011;7125;48.106;11.544;2023-12-29T05:34:56;1.87;;;1.20;;
14096;SDS011;7125;48.106;11.544;2023-12-29T05:37:23;1.30;;;1.20;;
14096;SDS011;7125;48.106;11.544;2023-12-29T05:45:17;2.77;;;1.27;;
14096;SDS011;7125;48.106;11.544;2023-12-29T05:47:44;1.37;;;1.27;;
14096;SDS011;7125;48.106;11.544;2023-12-29T05:50:11;1.83;;;1.33;;
14096;SDS011;7125;48.106;11.544;2023-12-29T05:52:38;1.10;;;1.00;;
14096;SDS011;7125;48.106;11.544;2023-12-29T05:55:05;1.33;;;1.07;;
14096;SDS011;7125;48.106;11.544;2023-12-29T05:57:33;1.80;;;1.10;;
14096;SDS011;7125;48.106;11.544;2023-12-29T06:00:00;1.73;;;1.20;;
14096;SDS011;7125;48.106;11.544;2023-12-29T06:02:38;1.50;;;1.27;;
14096;SDS011;7125;48.106;11.544;2023-12-29T06:05:05;0.97;;;0.97;;
14096;SDS011;7125;48.106;11.544;2023-12-29T06:07:33;1.33;;;1.13;;
14096;SDS011;7125;48.106;11.544;2023-12-29T06:10:00;1.40;;;1.30;;
14096;SDS011;7125;48.106;11.544;2023-12-29T06:12:27;1.07;;;0.90;;
14096;SDS011;7125;48.106;11.544;2023-12-29T06:17:30;3.23;;;2.93;;
14096;SDS011;7125;48.106;11.544;2023-12-29T06:19:59;1.63;;;1.43;;
14096;SDS011;7125;48.106;11.544;2023-12-29T06:22:27;3.03;;;1.43;;
14096;SDS011;7125;48.106;11.544;2023-12-29T06:24:54;4.03;;;1.83;;
14096;SDS011;7125;48.106;11.544;2023-12-29T06:27:21;1.90;;;1.67;;
14096;SDS011;7125;48.106;11.544;2023-12-29T06:29:48;1.33;;;1.23;;
14096;SDS011;7125;48.106;11.544;2023-12-29T06:32:16;1.37;;;1.20;;
14096;SDS011;7125;48.106;11.544;2023-12-29T06:34:43;1.63;;;0.87;;
14096;SDS011;7125;48.106;11.544;2023-12-29T06:37:11;2.73;;;1.43;;
14096;SDS011;7125;48.106;11.544;2023-12-29T06:39:38;4.03;;;1.77;;
14096;SDS011;7125;48.106;11.544;2023-12-29T06:42:06;1.10;;;1.00;;
14096;SDS011;7125;48.106;11.544;2023-12-29T06:44:33;2.57;;;1.63;;
14096;SDS011;7125;48.106;11.544;2023-12-29T06:47:00;1.40;;;1.30;;
14096;SDS011;7125;48.106;11.544;2023-12-29T06:49:30;1.60;;;1.00;;
14096;SDS011;7125;48.106;11.544;2023-12-29T06:51:57;1.20;;;1.07;;
14096;SDS011;7125;48.106;11.544;2023-12-29T06:54:26;1.47;;;1.00;;
14096;SDS011;7125;48.106;11.544;2023-12-29T06:56:53;1.13;;;0.97;;
14096;SDS011;7125;48.106;11.544;2023-12-29T06:59:21;1.67;;;1.57;;
14096;SDS011;7125;48.106;11.544;2023-12-29T07:01:49;1.83;;;1.30;;
14096;SDS011;7125;48.106;11.544;2023-12-29T07:04:16;2.27;;;1.37;;
14096;SDS011;7125;48.106;11.544;2023-12-29T07:06:43;2.37;;;1.17;;
14096;SDS011;7125;48.106;11.544;2023-12-29T07:09:11;1.07;;;0.97;;
14096;SDS011;7125;48.106;11.544;2023-12-29T07:11:40;0.97;;;0.90;;
14096;SDS011;7125;48.106;11.544;2023-12-29T07:14:08;1.53;;;0.77;;
14096;SDS011;7125;48.106;11.544;2023-12-29T07:16:35;1.67;;;0.80;;
14096;SDS011;7125;48.106;11.544;2023-12-29T07:19:02;1.23;;;0.90;;
14096;SDS011;7125;48.106;11.544;2023-12-29T07:21:29;1.17;;;1.07;;
14096;SDS011;7125;48.106;11.544;2023-12-29T07:23:56;1.00;;;1.00;;
14096;SDS011;7125;48.106;11.544;2023-12-29T07:26:23;1.40;;;1.03;;
14096;SDS011;7125;48.106;11.544;2023-12-29T07:28:52;0.93;;;0.90;;
14096;SDS011;7125;48.106;11.544;2023-12-29T07:34:01;1.37;;;0.87;;
14096;SDS011;7125;48.106;11.544;2023-12-29T07:36:28;1.17;;;0.73;;
14096;SDS011;7125;48.106;11.544;2023-12-29T07:38:55;1.10;;;1.00;;
14096;SDS011;7125;48.106;11.544;2023-12-29T07:41:22;1.10;;;1.00;;
14096;SDS011;7125;48.106;11.544;2023-12-29T07:43:49;2.83;;;1.20;;
14096;SDS011;7125;48.106;11.544;2023-12-29T07:46:24;1.53;;;0.97;;
14096;SDS011;7125;48.106;11.544;2023-12-29T07:48:51;2.20;;;1.10;;
14096;SDS011;7125;48.106;11.544;2023-12-29T07:54:01;1.53;;;0.80;;
14096;SDS011;7125;48.106;11.544;2023-12-29T07:56:28;1.87;;;1.20;;
14096;SDS011;7125;48.106;11.544;2023-12-29T07:58:55;1.03;;;0.90;;
14096;SDS011;7125;48.106;11.544;2023-12-29T08:01:22;2.80;;;1.00;;
14096;SDS011;7125;48.106;11.544;2023-12-29T08:03:50;1.17;;;1.00;;
14096;SDS011;7125;48.106;11.544;2023-12-29T08:06:17;1.73;;;1.00;;
14096;SDS011;7125;48.106;11.544;2023-12-29T08:08:44;1.43;;;1.33;;
14096;SDS011;7125;48.106;11.544;2023-12-29T08:11:15;1.23;;;1.00;;
14096;SDS011;7125;48.106;11.544;2023-12-29T08:13:43;1.27;;;0.87;;
14096;SDS011;7125;48.106;11.544;2023-12-29T08:16:12;1.00;;;0.90;;
14096;SDS011;7125;48.106;11.544;2023-12-29T08:18:39;3.63;;;1.27;;
14096;SDS011;7125;48.106;11.544;2023-12-29T08:21:07;1.20;;;1.10;;
14096;SDS011;7125;48.106;11.544;2023-12-29T08:23:34;2.27;;;1.23;;
14096;SDS011;7125;48.106;11.544;2023-12-29T08:26:02;1.23;;;0.63;;
14096;SDS011;7125;48.106;11.544;2023-12-29T08:28:29;1.50;;;1.03;;
14096;SDS011;7125;48.106;11.544;2023-12-29T08:30:56;1.10;;;0.90;;
14096;SDS011;7125;48.106;11.544;2023-12-29T08:33:24;1.33;;;0.90;;
14096;SDS011;7125;48.106;11.544;2023-12-29T08:35:51;2.07;;;1.87;;
14096;SDS011;7125;48.106;11.544;2023-12-29T08:38:19;1.70;;;1.47;;
14096;SDS011;7125;48.106;11.544;2023-12-29T08:40:46;1.27;;;0.90;;
14096;SDS011;7125;48.106;11.544;2023-12-29T08:43:13;0.73;;;0.73;;
14096;SDS011;7125;48.106;11.544;2023-12-29T08:45:42;1.50;;;1.40;;
14096;SDS011;7125;48.106;11.544;2023-12-29T08:48:10;1.83;;;1.10;;
14096;SDS011;7125;48.106;11.544;2023-12-29T08:50:37;1.23;;;1.13;;
14096;SDS011;7125;48.106;11.544;2023-12-29T08:53:04;0.77;;;0.77;;
14096;SDS011;7125;48.106;11.544;2023-12-29T08:55:33;1.13;;;0.83;;
14096;SDS011;7125;48.106;11.544;2023-12-29T09:01:05;2.80;;;0.80;;
14096;SDS011;7125;48.106;11.544;2023-12-29T09:03:32;1.20;;;1.10;;
14096;SDS011;7125;48.106;11.544;2023-12-29T09:13:44;1.30;;;1.20;;
14096;SDS011;7125;48.106;11.544;2023-12-29T09:16:11;1.83;;;1.20;;
14096;SDS011;7125;48.106;11.544;2023-12-29T09:21:29;1.00;;;0.80;;
14096;SDS011;7125;48.106;11.544;2023-12-29T09:23:56;0.87;;;0.83;;
14096;SDS011;7125;48.106;11.544;2023-12-29T09:26:23;0.70;;;0.70;;
14096;SDS011;7125;48.106;11.544;2023-12-29T09:28:52;1.27;;;1.00;;
14096;SDS011;7125;48.106;11.544;2023-12-29T09:31:19;1.13;;;1.03;;
14096;SDS011;7125;48.106;11.544;2023-12-29T09:33:46;1.03;;;0.80;;
14096;SDS011;7125;48.106;11.544;2023-12-29T09:36:13;1.53;;;1.43;;
14096;SDS011;7125;48.106;11.544;2023-12-29T09:38:40;0.87;;;0.80;;
14096;SDS011;7125;48.106;11.544;2023-12-29T09:43:54;1.20;;;0.77;;
14096;SDS011;7125;48.106;11.544;2023-12-29T09:46:23;0.90;;;0.80;;
14096;SDS011;7125;48.106;11.544;2023-12-29T09:48:54;1.00;;;0.60;;
14096;SDS011;7125;48.106;11.544;2023-12-29T09:51:24;3.43;;;1.20;;
14096;SDS011;7125;48.106;11.544;2023-12-29T09:53:52;0.80;;;0.80;;
14096;SDS011;7125;48.106;11.544;2023-12-29T09:56:19;2.00;;;1.03;;
14096;SDS011;7125;48.106;11.544;2023-12-29T09:58:47;1.20;;;1.10;;
14096;SDS011;7125;48.106;11.544;2023-12-29T10:01:16;1.00;;;0.80;;
14096;SDS011;7125;48.106;11.544;2023-12-29T10:03:44;0.73;;;0.70;;
14096;SDS011;7125;48.106;11.544;2023-12-29T10:06:13;1.00;;;0.87;;
14096;SDS011;7125;48.106;11.544;2023-12-29T10:08:46;1.33;;;0.80;;
14096;SDS011;7125;48.106;11.544;2023-12-29T10:11:16;0.90;;;0.60;;
14096;SDS011;7125;48.106;11.544;2023-12-29T10:16:24;0.73;;;0.60;;
14096;SDS011;7125;48.106;11.544;2023-12-29T10:19:00;0.93;;;0.57;;
14096;SDS011;7125;48.106;11.544;2023-12-29T10:21:38;0.77;;;0.73;;
14096;SDS011;7125;48.106;11.544;2023-12-29T10:24:10;0.60;;;0.50;;
14096;SDS011;7125;48.106;11.544;2023-12-29T10:26:43;1.00;;;0.70;;
14096;SDS011;7125;48.106;11.544;2023-12-29T10:29:10;1.10;;;0.67;;
14096;SDS011;7125;48.106;11.544;2023-12-29T10:31:39;1.10;;;0.77;;
14096;SDS011;7125;48.106;11.544;2023-12-29T10:34:19;0.60;;;0.60;;
14096;SDS011;7125;48.106;11.544;2023-12-29T10:36:53;1.20;;;0.57;;
14096;SDS011;7125;48.106;11.544;2023-12-29T10:39:21;0.80;;;0.70;;
14096;SDS011;7125;48.106;11.544;2023-12-29T10:41:49;0.50;;;0.50;;
14096;SDS011;7125;48.106;11.544;2023-12-29T10:44:16;0.50;;;0.40;;
14096;SDS011;7125;48.106;11.544;2023-12-29T10:46:45;0.53;;;0.40;;
14096;SDS011;7125;48.106;11.544;2023-12-29T10:49:13;0.77;;;0.50;;
14096;SDS011;7125;48.106;11.544;2023-12-29T10:51:40;0.47;;;0.47;;
14096;SDS011;7125;48.106;11.544;2023-12-29T10:54:07;0.37;;;0.37;;
14096;SDS011;7125;48.106;11.544;2023-12-29T10:56:34;0.70;;;0.70;;
14096;SDS011;7125;48.106;11.544;2023-12-29T10:59:02;0.50;;;0.40;;
14096;SDS011;7125;48.106;11.544;2023-12-29T11:01:30;0.30;;;0.30;;
14096;SDS011;7125;48.106;11.544;2023-12-29T11:03:59;1.40;;;1.20;;
14096;SDS011;7125;48.106;11.544;2023-12-29T11:06:28;0.60;;;0.40;;
14096;SDS011;7125;48.106;11.544;2023-12-29T11:08:56;0.70;;;0.60;;
14096;SDS011;7125;48.106;11.544;2023-12-29T11:11:23;0.77;;;0.77;;
14096;SDS011;7125;48.106;11.544;2023-12-29T11:13:51;0.43;;;0.43;;
14096;SDS011;7125;48.106;11.544;2023-12-29T11:16:20;0.37;;;0.37;;
14096;SDS011;7125;48.106;11.544;2023-12-29T11:18:49;0.37;;;0.27;;
14096;SDS011;7125;48.106;11.544;2023-12-29T11:21:19;0.20;;;0.20;;
14096;SDS011;7125;48.106;11.544;2023-12-29T11:23:48;1.53;;;0.60;;
14096;SDS011;7125;48.106;11.544;2023-12-29T11:26:16;1.63;;;0.50;;
14096;SDS011;7125;48.106;11.544;2023-12-29T11:28:46;1.83;;;0.60;;
14096;SDS011;7125;48.106;11.544;2023-12-29T11:31:14;1.03;;;0.50;;
14096;SDS011;7125;48.106;11.544;2023-12-29T11:33:43;0.97;;;0.93;;
14096;SDS011;7125;48.106;11.544;2023-12-29T11:36:16;0.80;;;0.70;;
14096;SDS011;7125;48.106;11.544;2023-12-29T11:38:52;2.50;;;2.30;;
14096;SDS011;7125;48.106;11.544;2023-12-29T11:41:25;1.33;;;1.00;;
14096;SDS011;7125;48.106;11.544;2023-12-29T11:43:58;1.50;;;0.80;;
14096;SDS011;7125;48.106;11.544;2023-12-29T11:46:32;1.43;;;0.77;;
14096;SDS011;7125;48.106;11.544;2023-12-29T11:49:00;1.00;;;0.90;;
14096;SDS011;7125;48.106;11.544;2023-12-29T11:51:31;0.80;;;0.70;;
14096;SDS011;7125;48.106;11.544;2023-12-29T11:54:00;1.67;;;1.57;;
14096;SDS011;7125;48.106;11.544;2023-12-29T11:56:31;0.87;;;0.50;;
14096;SDS011;7125;48.106;11.544;2023-12-29T11:59:14;1.13;;;0.90;;
14096;SDS011;7125;48.106;11.544;2023-12-29T12:01:43;0.73;;;0.60;;
14096;SDS011;7125;48.106;11.544;2023-12-29T12:07:02;0.97;;;0.90;;
14096;SDS011;7125;48.106;11.544;2023-12-29T12:09:29;0.53;;;0.50;;
14096;SDS011;7125;48.106;11.544;2023-12-29T12:11:56;0.43;;;0.43;;
14096;SDS011;7125;48.106;11.544;2023-12-29T12:19:49;0.47;;;0.40;;
14096;SDS011;7125;48.106;11.544;2023-12-29T12:22:18;0.77;;;0.77;;
14096;SDS011;7125;48.106;11.544;2023-12-29T12:24:48;1.17;;;0.57;;
14096;SDS011;7125;48.106;11.544;2023-12-29T12:27:16;0.60;;;0.47;;
14096;SDS011;7125;48.106;11.544;2023-12-29T12:29:43;0.77;;;0.40;;
14096;SDS011;7125;48.106;11.544;2023-12-29T12:32:11;1.07;;;0.60;;
14096;SDS011;7125;48.106;11.544;2023-12-29T12:34:42;0.57;;;0.50;;
14096;SDS011;7125;48.106;11.544;2023-12-29T12:37:09;2.93;;;0.77;;
14096;SDS011;7125;48.106;11.544;2023-12-29T12:39:41;1.27;;;0.37;;
14096;SDS011;7125;48.106;11.544;2023-12-29T12:42:08;0.77;;;0.60;;
14096;SDS011;7125;48.106;11.544;2023-12-29T12:44:37;0.67;;;0.40;;
14096;SDS011;7125;48.106;11.544;2023-12-29T12:47:07;0.57;;;0.50;;
14096;SDS011;7125;48.106;11.544;2023-12-29T12:52:18;1.03;;;0.80;;
14096;SDS011;7125;48.106;11.544;2023-12-29T12:54:47;0.83;;;0.70;;
14096;SDS011;7125;48.106;11.544;2023-12-29T12:57:17;1.47;;;0.70;;
14096;SDS011;7125;48.106;11.544;2023-12-29T12:59:47;1.33;;;0.70;;
14096;SDS011;7125;48.106;11.544;2023-12-29T13:02:15;1.13;;;0.80;;
14096;SDS011;7125;48.106;11.544;2023-12-29T13:04:45;0.67;;;0.60;;
14096;SDS011;7125;48.106;11.544;2023-12-29T13:07:14;0.50;;;0.50;;
14096;SDS011;7125;48.106;11.544;2023-12-29T13:12:20;0.60;;;0.40;;
14096;SDS011;7125;48.106;11.544;2023-12-29T13:14:47;0.47;;;0.47;;
14096;SDS011;7125;48.106;11.544;2023-12-29T13:17:14;0.50;;;0.50;;
14096;SDS011;7125;48.106;11.544;2023-12-29T13:19:43;0.30;;;0.30;;
14096;SDS011;7125;48.106;11.544;2023-12-29T13:22:10;0.40;;;0.40;;
14096;SDS011;7125;48.106;11.544;2023-12-29T13:24:42;0.90;;;0.57;;
14096;SDS011;7125;48.106;11.544;2023-12-29T13:27:11;4.53;;;0.70;;
14096;SDS011;7125;48.106;11.544;2023-12-29T13:29:40;0.87;;;0.60;;
14096;SDS011;7125;48.106;11.544;2023-12-29T13:32:11;0.40;;;0.40;;
14096;SDS011;7125;48.106;11.544;2023-12-29T13:34:47;0.30;;;0.30;;
14096;SDS011;7125;48.106;11.544;2023-12-29T13:37:21;0.73;;;0.40;;
14096;SDS011;7125;48.106;11.544;2023-12-29T13:39:53;0.40;;;0.40;;
14096;SDS011;7125;48.106;11.544;2023-12-29T13:42:23;1.43;;;0.40;;
14096;SDS011;7125;48.106;11.544;2023-12-29T13:44:54;1.13;;;0.70;;
14096;SDS011;7125;48.106;11.544;2023-12-29T13:47:22;0.73;;;0.67;;
14096;SDS011;7125;48.106;11.544;2023-12-29T13:49:50;0.70;;;0.70;;
14096;SDS011;7125;48.106;11.544;2023-12-29T13:52:18;0.47;;;0.37;;
14096;SDS011;7125;48.106;11.544;2023-12-29T13:54:46;0.50;;;0.40;;
14096;SDS011;7125;48.106;11.544;2023-12-29T13:57:13;2.00;;;0.50;;
14096;SDS011;7125;48.106;11.544;2023-12-29T13:59:40;0.67;;;0.63;;
14096;SDS011;7125;48.106;11.544;2023-12-29T14:02:27;0.50;;;0.50;;
14096;SDS011;7125;48.106;11.544;2023-12-29T14:05:10;1.10;;;0.47;;
14096;SDS011;7125;48.106;11.544;2023-12-29T14:07:43;0.40;;;0.40;;
14096;SDS011;7125;48.106;11.544;2023-12-29T14:10:14;0.80;;;0.30;;
14096;SDS011;7125;48.106;11.544;2023-12-29T14:12:41;1.20;;;0.50;;
14096;SDS011;7125;48.106;11.544;2023-12-29T14:15:08;0.93;;;0.40;;
14096;SDS011;7125;48.106;11.544;2023-12-29T14:17:37;0.50;;;0.47;;
14096;SDS011;7125;48.106;11.544;2023-12-29T14:20:06;0.87;;;0.53;;
14096;SDS011;7125;48.106;11.544;2023-12-29T14:22:34;0.30;;;0.30;;
14096;SDS011;7125;48.106;11.544;2023-12-29T14:25:02;0.77;;;0.40;;
14096;SDS011;7125;48.106;11.544;2023-12-29T14:27:29;0.60;;;0.57;;
14096;SDS011;7125;48.106;11.544;2023-12-29T14:29:57;0.57;;;0.40;;
14096;SDS011;7125;48.106;11.544;2023-12-29T14:32:25;0.87;;;0.50;;
14096;SDS011;7125;48.106;11.544;2023-12-29T14:34:55;0.60;;;0.47;;
14096;SDS011;7125;48.106;11.544;2023-12-29T14:37:22;0.50;;;0.30;;
14096;SDS011;7125;48.106;11.544;2023-12-29T14:39:50;1.13;;;0.60;;
14096;SDS011;7125;48.106;11.544;2023-12-29T14:42:18;0.83;;;0.43;;
14096;SDS011;7125;48.106;11.544;2023-12-29T14:44:45;0.33;;;0.33;;
14096;SDS011;7125;48.106;11.544;2023-12-29T14:47:13;0.73;;;0.53;;
14096;SDS011;7125;48.106;11.544;2023-12-29T14:49:41;0.70;;;0.70;;
14096;SDS011;7125;48.106;11.544;2023-12-29T14:52:10;0.60;;;0.50;;
14096;SDS011;7125;48.106;11.544;2023-12-29T14:54:38;0.63;;;0.40;;
14096;SDS011;7125;48.106;11.544;2023-12-29T14:57:06;0.50;;;0.50;;
14096;SDS011;7125;48.106;11.544;2023-12-29T14:59:33;1.20;;;0.90;;
14096;SDS011;7125;48.106;11.544;2023-12-29T15:02:02;1.70;;;0.50;;
14096;SDS011;7125;48.106;11.544;2023-12-29T15:04:32;1.80;;;0.87;;
14096;SDS011;7125;48.106;11.544;2023-12-29T15:07:00;0.80;;;0.63;;
14096;SDS011;7125;48.106;11.544;2023-12-29T15:09:29;0.53;;;0.53;;
14096;SDS011;7125;48.106;11.544;2023-12-29T15:11:56;1.03;;;0.60;;
14096;SDS011;7125;48.106;11.544;2023-12-29T15:14:24;1.00;;;0.60;;
14096;SDS011;7125;48.106;11.544;2023-12-29T15:16:51;1.00;;;0.50;;
14096;SDS011;7125;48.106;11.544;2023-12-29T15:19:18;0.37;;;0.30;;
14096;SDS011;7125;48.106;11.544;2023-12-29T15:21:46;0.37;;;0.37;;
14096;SDS011;7125;48.106;11.544;2023-12-29T15:24:13;1.13;;;0.50;;
14096;SDS011;7125;48.106;11.544;2023-12-29T15:26:41;0.60;;;0.60;;
14096;SDS011;7125;48.106;11.544;2023-12-29T15:29:09;0.87;;;0.70;;
14096;SDS011;7125;48.106;11.544;2023-12-29T15:31:36;1.17;;;0.87;;
14096;SDS011;7125;48.106;11.544;2023-12-29T15:34:03;0.70;;;0.50;;
14096;SDS011;7125;48.106;11.544;2023-12-29T15:36:30;0.57;;;0.30;;
14096;SDS011;7125;48.106;11.544;2023-12-29T15:38:57;1.27;;;0.50;;
14096;SDS011;7125;48.106;11.544;2023-12-29T15:41:24;0.37;;;0.30;;
14096;SDS011;7125;48.106;11.544;2023-12-29T15:43:53;0.30;;;0.30;;
14096;SDS011;7125;48.106;11.544;2023-12-29T15:46:21;1.00;;;0.60;;
14096;SDS011;7125;48.106;11.544;2023-12-29T15:48:48;1.53;;;0.30;;
14096;SDS011;7125;48.106;11.544;2023-12-29T15:51:15;0.70;;;0.50;;
14096;SDS011;7125;48.106;11.544;2023-12-29T15:53:43;1.60;;;0.67;;
14096;SDS011;7125;48.106;11.544;2023-12-29T15:56:15;0.60;;;0.33;;